Terminal Aerodrome Forecast
Issued by NWS Corpus Christi, TX

Home | Current Version | Previous Version | Text Only | Print | Product List | Glossary On
Versions: 1 2 3 4 5 6 7 8 9 10 11 12 13 14 15 16 17 18 19 20
580
FTUS44 KCRP 231414 AAA
TAFVCT
TAF AMD
KVCT 231414Z 2314/2412 03005KT 1SM BR OVC003
      TEMPO 2314/2317 1/4SM FG VV002
     FM231900 14012KT 6SM BR OVC015
     FM240000 14009KT 4SM BR BKN007 OVC012=

USA.gov is the U.S. government's official web portal to all federal, state and local government web resources and services.